Time;durP1;ratioP1;P1;durP2;ratioP2;P2;SDS_P1;SDS_P2;PMS_P1;PMS_P2;Temp;Humidity;BMP_temperature;BMP_pressure;BME280_temperature;BME280_humidity;BME280_pressure;Samples;Min_cycle;Max_cycle;Signal;HPM_P1;HPM_P2
2022/08/15 00:01:48;;;;;;;2.95;2.75;;;;;;;;;;5061682;28;20234;-76
2022/08/15 00:04:15;;;;;;;3.80;3.03;;;;;;;;;;5047511;28;20233;-76
2022/08/15 00:06:45;;;;;;;3.55;2.90;;;;;;;;;;5051020;28;20230;-76
2022/08/15 00:09:18;;;;;;;6.53;3.17;;;;;;;;;;5080814;28;20206;-76
2022/08/15 00:11:55;;;;;;;3.75;2.88;;;;;;;;;;5052037;28;20229;-75
2022/08/15 00:14:26;;;;;;;4.00;2.95;;;;;;;;;;5047342;28;20225;-76
2022/08/15 00:16:52;;;;;;;5.70;3.03;;;;;;;;;;5044252;28;20849;-76
2022/08/15 00:19:23;;;;;;;4.53;2.75;;;;;;;;;;5036275;28;20219;-75
2022/08/15 00:21:54;;;;;;;7.50;2.97;;;;;;;;;;5068247;28;20222;-76
2022/08/15 00:24:23;;;;;;;5.45;2.97;;;;;;;;;;5061189;28;20214;-76
2022/08/15 00:26:49;;;;;;;4.20;3.10;;;;;;;;;;5062084;28;20275;-75
2022/08/15 00:29:21;;;;;;;3.05;2.75;;;;;;;;;;5047851;28;20214;-75
2022/08/15 00:31:46;;;;;;;6.07;2.80;;;;;;;;;;5049708;28;20235;-76
2022/08/15 00:34:15;;;;;;;3.60;3.22;;;;;;;;;;5067920;28;20218;-76
2022/08/15 00:36:46;;;;;;;3.60;2.90;;;;;;;;;;5052988;28;20347;-75
2022/08/15 00:39:12;;;;;;;4.43;2.88;;;;;;;;;;5069997;28;20222;-75
2022/08/15 00:41:40;;;;;;;4.38;3.33;;;;;;;;;;5068796;28;20272;-76
2022/08/15 00:44:11;;;;;;;5.15;2.67;;;;;;;;;;5062248;28;20230;-75
2022/08/15 00:46:38;;;;;;;4.93;3.17;;;;;;;;;;5062660;28;20214;-75
2022/08/15 00:49:03;;;;;;;6.47;2.83;;;;;;;;;;5064015;28;20222;-75
2022/08/15 00:51:44;;;;;;;3.97;3.28;;;;;;;;;;5062333;28;20245;-75
2022/08/15 00:54:12;;;;;;;3.58;3.28;;;;;;;;;;5060359;28;20213;-75
2022/08/15 00:56:44;;;;;;;5.13;3.35;;;;;;;;;;5063682;28;20219;-76
2022/08/15 00:59:11;;;;;;;3.35;3.05;;;;;;;;;;5051542;28;20639;-75
2022/08/15 01:01:39;;;;;;;3.75;3.30;;;;;;;;;;5040032;28;20607;-75
2022/08/15 01:04:07;;;;;;;4.65;3.13;;;;;;;;;;5045878;28;20771;-76
2022/08/15 01:06:38;;;;;;;3.30;3.10;;;;;;;;;;5051966;28;20661;-75
2022/08/15 01:09:08;;;;;;;4.35;3.30;;;;;;;;;;5043515;28;20228;-76
2022/08/15 01:11:50;;;;;;;3.75;3.42;;;;;;;;;;5051303;28;20283;-75
2022/08/15 01:14:19;;;;;;;3.33;3.05;;;;;;;;;;5050646;28;20235;-75
2022/08/15 01:16:47;;;;;;;3.22;2.92;;;;;;;;;;5041047;28;20240;-75
2022/08/15 01:19:23;;;;;;;3.63;3.33;;;;;;;;;;5060133;28;20305;-75
2022/08/15 01:22:13;;;;;;;5.00;3.08;;;;;;;;;;5061973;28;20276;-76
2022/08/15 01:24:44;;;;;;;4.55;3.58;;;;;;;;;;5071255;28;20692;-75
2022/08/15 01:27:15;;;;;;;3.63;3.30;;;;;;;;;;5078077;28;20233;-75
2022/08/15 01:29:42;;;;;;;4.70;3.20;;;;;;;;;;5043881;28;20229;-75
2022/08/15 01:32:08;;;;;;;3.65;3.35;;;;;;;;;;5065647;28;20699;-75
2022/08/15 01:34:36;;;;;;;3.65;3.28;;;;;;;;;;5074565;28;20248;-76
2022/08/15 01:37:03;;;;;;;3.22;3.03;;;;;;;;;;5080383;28;20820;-75
2022/08/15 01:39:49;;;;;;;4.20;3.20;;;;;;;;;;5071888;28;20708;-75
2022/08/15 01:42:29;;;;;;;3.67;3.38;;;;;;;;;;5027049;28;20230;-75
2022/08/15 01:45:00;;;;;;;4.65;3.17;;;;;;;;;;5051342;28;20329;-75
2022/08/15 01:47:48;;;;;;;4.57;3.20;;;;;;;;;;5061100;28;20233;-76
2022/08/15 01:50:17;;;;;;;4.53;3.60;;;;;;;;;;5061865;28;20261;-75
2022/08/15 01:52:52;;;;;;;4.68;3.13;;;;;;;;;;5067635;28;20239;-74
2022/08/15 01:55:19;;;;;;;4.28;3.22;;;;;;;;;;5061314;28;20217;-75
2022/08/15 01:57:44;;;;;;;4.15;3.00;;;;;;;;;;5050436;28;20245;-75
2022/08/15 02:00:11;;;;;;;3.35;3.10;;;;;;;;;;5062753;28;20226;-75
2022/08/15 02:02:38;;;;;;;3.38;3.17;;;;;;;;;;5050949;28;20210;-74
2022/08/15 02:05:04;;;;;;;3.80;3.45;;;;;;;;;;5045277;28;20687;-75
2022/08/15 02:07:33;;;;;;;3.75;3.45;;;;;;;;;;5046877;28;20218;-75
2022/08/15 02:09:59;;;;;;;5.38;3.95;;;;;;;;;;5067859;28;20362;-75
2022/08/15 02:12:34;;;;;;;4.22;3.83;;;;;;;;;;5042649;28;20261;-75
2022/08/15 02:15:04;;;;;;;3.42;3.13;;;;;;;;;;5066191;28;20224;-75
2022/08/15 02:17:29;;;;;;;4.22;3.15;;;;;;;;;;5048099;28;20221;-75
2022/08/15 02:19:59;;;;;;;3.95;3.33;;;;;;;;;;5078496;28;20217;-75
2022/08/15 02:22:28;;;;;;;3.70;3.38;;;;;;;;;;5037481;28;20844;-75
2022/08/15 02:25:02;;;;;;;3.88;3.58;;;;;;;;;;5051558;28;20224;-75
2022/08/15 02:27:30;;;;;;;5.03;3.30;;;;;;;;;;5050467;28;20214;-75
2022/08/15 02:30:04;;;;;;;3.88;3.45;;;;;;;;;;5044178;28;20221;-75
2022/08/15 02:32:32;;;;;;;3.90;3.13;;;;;;;;;;5043750;28;20233;-74
2022/08/15 02:34:59;;;;;;;5.80;3.60;;;;;;;;;;5035095;28;20223;-75
2022/08/15 02:37:30;;;;;;;5.32;3.40;;;;;;;;;;5042450;28;20254;-76
2022/08/15 02:39:58;;;;;;;4.40;3.53;;;;;;;;;;5045455;28;20312;-75
2022/08/15 02:42:23;;;;;;;10.18;3.67;;;;;;;;;;5075552;28;20241;-75
2022/08/15 02:44:50;;;;;;;3.60;3.30;;;;;;;;;;5043269;28;20693;-75
2022/08/15 02:47:21;;;;;;;4.35;3.65;;;;;;;;;;5029215;28;20219;-74
2022/08/15 02:49:47;;;;;;;3.58;3.28;;;;;;;;;;5036442;28;20231;-75
2022/08/15 02:52:14;;;;;;;4.28;3.63;;;;;;;;;;5057223;28;20226;-75
2022/08/15 02:54:39;;;;;;;3.72;3.42;;;;;;;;;;5041853;28;20693;-74
2022/08/15 02:57:09;;;;;;;3.75;3.40;;;;;;;;;;5060824;28;20293;-75
2022/08/15 02:59:34;;;;;;;6.03;3.47;;;;;;;;;;5061553;28;20224;-75
2022/08/15 03:02:05;;;;;;;3.17;2.97;;;;;;;;;;5068187;28;20218;-74
2022/08/15 03:04:34;;;;;;;5.65;3.60;;;;;;;;;;5046150;28;20297;-76
2022/08/15 03:07:00;;;;;;;3.72;3.47;;;;;;;;;;5048795;28;20771;-75
2022/08/15 03:09:27;;;;;;;4.15;3.75;;;;;;;;;;5062052;28;20287;-75
2022/08/15 03:12:03;;;;;;;3.47;3.15;;;;;;;;;;5043383;28;20232;-75
2022/08/15 03:14:36;;;;;;;12.23;3.67;;;;;;;;;;5048712;28;20700;-75
2022/08/15 03:17:04;;;;;;;3.35;3.13;;;;;;;;;;5079197;28;20264;-75
2022/08/15 03:19:32;;;;;;;3.95;3.65;;;;;;;;;;5055448;28;20237;-75
2022/08/15 03:22:00;;;;;;;4.28;3.88;;;;;;;;;;5065093;28;20634;-76
2022/08/15 03:24:26;;;;;;;3.67;3.35;;;;;;;;;;5061566;28;20278;-75
2022/08/15 03:26:54;;;;;;;4.10;3.70;;;;;;;;;;5066025;28;20211;-75
2022/08/15 03:29:24;;;;;;;7.53;3.92;;;;;;;;;;5065494;28;20246;-75
2022/08/15 03:31:52;;;;;;;4.57;3.78;;;;;;;;;;5043740;28;20226;-74
2022/08/15 03:34:23;;;;;;;4.80;3.72;;;;;;;;;;5066839;28;20572;-75
2022/08/15 03:36:54;;;;;;;4.80;3.53;;;;;;;;;;5028544;28;20258;-75
2022/08/15 03:39:23;;;;;;;4.18;3.80;;;;;;;;;;5062754;28;20338;-76
2022/08/15 03:41:48;;;;;;;3.75;3.33;;;;;;;;;;5058796;28;20364;-75
2022/08/15 03:44:15;;;;;;;5.35;3.83;;;;;;;;;;5064724;28;20612;-75
2022/08/15 03:46:42;;;;;;;4.10;3.70;;;;;;;;;;5051486;28;20218;-74
2022/08/15 03:49:10;;;;;;;4.95;3.60;;;;;;;;;;5066650;28;20218;-74
2022/08/15 03:51:41;;;;;;;4.07;3.67;;;;;;;;;;5062213;28;20222;-74
2022/08/15 03:54:12;;;;;;;9.45;3.92;;;;;;;;;;5048929;28;20268;-75
2022/08/15 03:56:39;;;;;;;5.00;3.45;;;;;;;;;;5075726;28;20243;-76
2022/08/15 03:59:10;;;;;;;4.30;3.70;;;;;;;;;;5054433;28;20210;-76
2022/08/15 04:01:37;;;;;;;3.83;3.53;;;;;;;;;;5048824;28;20301;-76
2022/08/15 04:04:06;;;;;;;3.95;3.63;;;;;;;;;;5069086;28;20218;-77
2022/08/15 04:06:40;;;;;;;4.30;3.67;;;;;;;;;;5055586;28;20218;-76
2022/08/15 04:09:06;;;;;;;5.88;3.38;;;;;;;;;;5046335;28;20280;-76
2022/08/15 04:11:33;;;;;;;3.72;3.35;;;;;;;;;;5043189;28;20711;-76
2022/08/15 04:14:01;;;;;;;4.95;3.50;;;;;;;;;;5047143;28;20327;-75
2022/08/15 04:16:28;;;;;;;4.28;3.88;;;;;;;;;;5076358;28;20235;-76
2022/08/15 04:18:56;;;;;;;4.40;3.45;;;;;;;;;;5069056;28;20218;-76
2022/08/15 04:21:22;;;;;;;3.15;2.95;;;;;;;;;;5064194;28;20222;-76
2022/08/15 04:23:50;;;;;;;4.78;3.65;;;;;;;;;;5044985;28;20711;-76
2022/08/15 04:26:16;;;;;;;3.90;3.55;;;;;;;;;;5050081;28;20229;-76
2022/08/15 04:28:43;;;;;;;4.70;3.83;;;;;;;;;;5043353;28;20304;-76
2022/08/15 04:31:16;;;;;;;4.82;3.67;;;;;;;;;;5061214;28;20231;-76
2022/08/15 04:33:46;;;;;;;4.82;3.40;;;;;;;;;;5059696;28;20269;-76
2022/08/15 04:36:15;;;;;;;5.22;3.75;;;;;;;;;;5068830;28;20242;-76
2022/08/15 04:38:43;;;;;;;4.30;3.80;;;;;;;;;;5059451;28;20221;-76
2022/08/15 04:41:09;;;;;;;4.00;3.58;;;;;;;;;;5047111;28;20214;-74
2022/08/15 04:43:43;;;;;;;7.57;3.70;;;;;;;;;;5057985;28;20634;-75
2022/08/15 04:46:13;;;;;;;4.07;3.67;;;;;;;;;;5063903;28;20232;-76
2022/08/15 04:48:42;;;;;;;4.60;3.72;;;;;;;;;;5068164;28;20222;-76
2022/08/15 04:51:11;;;;;;;4.43;4.03;;;;;;;;;;5044530;28;20603;-75
2022/08/15 04:53:41;;;;;;;4.00;3.65;;;;;;;;;;5070135;28;20706;-76
2022/08/15 04:56:10;;;;;;;6.45;3.80;;;;;;;;;;5051131;28;20238;-74
2022/08/15 04:58:40;;;;;;;5.10;3.45;;;;;;;;;;5031461;28;20234;-76
2022/08/15 05:01:11;;;;;;;6.60;3.70;;;;;;;;;;5060880;28;20231;-76
2022/08/15 05:03:43;;;;;;;4.25;3.95;;;;;;;;;;5054258;28;20229;-76
2022/08/15 05:06:11;;;;;;;4.00;3.53;;;;;;;;;;5067556;28;20296;-76
2022/08/15 05:08:39;;;;;;;3.85;3.42;;;;;;;;;;5066005;28;20767;-76
2022/08/15 05:11:15;;;;;;;7.75;3.83;;;;;;;;;;5061917;28;20230;-76
2022/08/15 05:13:43;;;;;;;6.03;3.88;;;;;;;;;;5037381;28;20240;-76
2022/08/15 05:16:14;;;;;;;4.70;4.20;;;;;;;;;;5042622;28;20243;-76
2022/08/15 05:18:45;;;;;;;5.93;3.83;;;;;;;;;;5076411;28;20331;-77
2022/08/15 05:21:11;;;;;;;5.60;4.20;;;;;;;;;;5077098;28;20286;-76
2022/08/15 05:23:38;;;;;;;4.63;4.20;;;;;;;;;;5055172;28;20230;-76
2022/08/15 05:26:05;;;;;;;4.70;4.30;;;;;;;;;;5065965;28;20703;-76
2022/08/15 05:28:39;;;;;;;5.03;4.03;;;;;;;;;;5076672;28;20698;-77
2022/08/15 05:31:11;;;;;;;5.82;3.92;;;;;;;;;;5042861;28;20227;-75
2022/08/15 05:33:39;;;;;;;4.07;3.70;;;;;;;;;;5061794;28;20811;-76
2022/08/15 05:36:08;;;;;;;5.13;4.55;;;;;;;;;;5058037;28;20214;-76
2022/08/15 05:38:40;;;;;;;5.95;4.45;;;;;;;;;;5025151;28;20231;-76
2022/08/15 05:41:14;;;;;;;10.52;4.45;;;;;;;;;;5051301;28;20229;-74
2022/08/15 05:44:22;;;;;;;4.82;3.83;;;;;;;;;;5068271;28;20280;-76
2022/08/15 05:47:00;;;;;;;5.55;4.45;;;;;;;;;;5054110;28;20267;-76
2022/08/15 05:49:33;;;;;;;4.40;4.05;;;;;;;;;;5066666;28;20956;-76
2022/08/15 05:52:25;;;;;;;3.78;3.47;;;;;;;;;;5079955;28;20230;-76
2022/08/15 05:55:27;;;;;;;6.75;4.97;;;;;;;;;;5064281;28;20278;-76
2022/08/15 05:58:16;;;;;;;4.63;4.20;;;;;;;;;;5067148;28;20660;-75
2022/08/15 06:00:56;;;;;;;4.97;4.53;;;;;;;;;;5077886;28;20223;-76
2022/08/15 06:03:25;;;;;;;4.47;4.07;;;;;;;;;;5042719;28;20303;-76
2022/08/15 06:05:55;;;;;;;6.57;4.78;;;;;;;;;;5033806;28;20703;-76
2022/08/15 06:08:24;;;;;;;5.75;4.50;;;;;;;;;;5048918;28;20242;-76
2022/08/15 06:11:08;;;;;;;5.20;4.70;;;;;;;;;;5061681;28;20600;-75
2022/08/15 06:13:43;;;;;;;5.43;4.40;;;;;;;;;;5055243;28;20229;-76
2022/08/15 06:16:31;;;;;;;5.43;4.80;;;;;;;;;;5047091;28;20223;-76
2022/08/15 06:19:03;;;;;;;4.60;4.30;;;;;;;;;;5058875;28;20747;-76
2022/08/15 06:21:41;;;;;;;4.93;4.53;;;;;;;;;;5061864;28;20230;-76
2022/08/15 06:24:21;;;;;;;5.07;4.57;;;;;;;;;;5061330;28;20699;-76
2022/08/15 06:26:55;;;;;;;5.63;4.68;;;;;;;;;;5058580;28;20229;-76
2022/08/15 06:29:42;;;;;;;5.38;4.80;;;;;;;;;;5077229;28;20245;-76
2022/08/15 06:32:37;;;;;;;5.85;4.63;;;;;;;;;;5064310;28;20637;-77
2022/08/15 06:35:46;;;;;;;5.13;4.63;;;;;;;;;;5065826;28;20222;-76
2022/08/15 06:38:36;;;;;;;4.65;4.22;;;;;;;;;;5055494;28;20321;-77
2022/08/15 06:41:15;;;;;;;5.40;4.90;;;;;;;;;;5067304;28;20610;-76
2022/08/15 06:43:43;;;;;;;5.90;5.30;;;;;;;;;;5059067;28;20252;-76
2022/08/15 06:46:21;;;;;;;5.38;4.93;;;;;;;;;;5043031;28;20244;-77
2022/08/15 06:48:47;;;;;;;6.40;5.00;;;;;;;;;;5046089;28;20725;-76
2022/08/15 06:51:13;;;;;;;6.38;5.25;;;;;;;;;;5029834;28;20231;-76
2022/08/15 06:53:53;;;;;;;5.43;4.93;;;;;;;;;;5026501;28;20276;-76
2022/08/15 06:56:31;;;;;;;5.22;4.72;;;;;;;;;;5058568;28;20223;-76
2022/08/15 06:59:19;;;;;;;5.57;5.07;;;;;;;;;;5067043;28;20214;-76
2022/08/15 07:01:58;;;;;;;6.60;5.13;;;;;;;;;;5050217;28;20267;-76
2022/08/15 07:04:45;;;;;;;6.50;4.57;;;;;;;;;;5061448;28;20214;-75
2022/08/15 07:07:45;;;;;;;5.38;4.88;;;;;;;;;;5065958;28;20224;-75
2022/08/15 07:10:23;;;;;;;5.53;5.00;;;;;;;;;;5069236;28;20252;-76
2022/08/15 07:13:05;;;;;;;5.68;4.97;;;;;;;;;;5027340;28;20237;-76
2022/08/15 07:15:58;;;;;;;6.15;5.43;;;;;;;;;;5071625;28;20245;-76
2022/08/15 07:18:34;;;;;;;6.50;5.10;;;;;;;;;;5078680;28;20214;-76
2022/08/15 07:21:16;;;;;;;5.53;5.13;;;;;;;;;;5083145;28;20342;-76
2022/08/15 07:24:20;;;;;;;8.45;5.00;;;;;;;;;;5052274;28;20264;-76
2022/08/15 07:26:49;;;;;;;5.88;5.38;;;;;;;;;;5038557;28;20324;-75
2022/08/15 07:29:37;;;;;;;5.97;5.43;;;;;;;;;;5056333;28;20242;-76
2022/08/15 07:32:11;;;;;;;5.68;5.13;;;;;;;;;;5074744;28;20292;-77
2022/08/15 07:34:39;;;;;;;5.55;5.10;;;;;;;;;;5052997;28;20668;-76
2022/08/15 07:37:07;;;;;;;5.60;4.82;;;;;;;;;;5050629;28;20232;-76
2022/08/15 07:39:41;;;;;;;5.50;5.03;;;;;;;;;;5046548;28;20227;-76
2022/08/15 07:42:18;;;;;;;5.57;5.15;;;;;;;;;;5034292;28;20226;-76
2022/08/15 07:44:55;;;;;;;6.20;5.50;;;;;;;;;;5064210;28;20700;-76
2022/08/15 07:47:24;;;;;;;7.47;5.20;;;;;;;;;;5036297;28;20234;-77
2022/08/15 07:50:05;;;;;;;10.23;5.60;;;;;;;;;;5053879;28;20227;-77
2022/08/15 07:52:33;;;;;;;5.78;5.28;;;;;;;;;;5070179;28;20226;-76
2022/08/15 07:55:22;;;;;;;5.85;5.35;;;;;;;;;;5064498;28;20215;-77
2022/08/15 07:58:02;;;;;;;5.68;5.07;;;;;;;;;;5068593;28;20254;-77
2022/08/15 08:00:34;;;;;;;5.80;5.30;;;;;;;;;;5046235;28;20233;-76
2022/08/15 08:03:15;;;;;;;6.43;5.70;;;;;;;;;;5066365;28;20217;-77
2022/08/15 08:05:51;;;;;;;6.00;5.40;;;;;;;;;;5064829;28;20294;-77
2022/08/15 08:08:23;;;;;;;5.85;5.25;;;;;;;;;;5058719;28;20322;-76
2022/08/15 08:10:56;;;;;;;6.30;5.70;;;;;;;;;;5051930;28;20799;-77
2022/08/15 08:13:58;;;;;;;5.93;5.38;;;;;;;;;;5056212;28;20232;-75
2022/08/15 08:16:28;;;;;;;6.20;5.63;;;;;;;;;;5066675;28;20214;-75
2022/08/15 08:19:08;;;;;;;6.80;5.55;;;;;;;;;;5042924;28;20301;-77
2022/08/15 08:21:47;;;;;;;6.10;5.60;;;;;;;;;;5060002;28;20301;-78
2022/08/15 08:24:27;;;;;;;7.53;6.15;;;;;;;;;;5062922;28;20220;-76
2022/08/15 08:27:02;;;;;;;5.22;4.75;;;;;;;;;;5066669;28;20225;-76
2022/08/15 08:30:06;;;;;;;5.68;5.20;;;;;;;;;;5064380;28;20226;-76
2022/08/15 08:32:41;;;;;;;5.60;5.10;;;;;;;;;;5076513;28;20371;-76
2022/08/15 08:35:28;;;;;;;6.30;5.55;;;;;;;;;;5085399;28;20249;-76
2022/08/15 08:38:41;;;;;;;6.30;5.75;;;;;;;;;;5076997;28;20223;-76
2022/08/15 08:44:19;;;;;;;5.57;5.13;;;;;;;;;;5079681;28;20249;-78
2022/08/15 08:46:53;;;;;;;6.50;5.80;;;;;;;;;;5058938;28;20225;-77
2022/08/15 08:49:32;;;;;;;6.10;5.57;;;;;;;;;;5079697;28;20223;-77
2022/08/15 08:52:42;;;;;;;6.50;5.38;;;;;;;;;;5085353;28;20305;-76
2022/08/15 08:55:17;;;;;;;8.68;5.45;;;;;;;;;;5091610;28;20225;-76
2022/08/15 08:57:49;;;;;;;6.15;5.60;;;;;;;;;;5075930;28;20214;-77
2022/08/15 09:00:21;;;;;;;6.30;5.70;;;;;;;;;;5040427;28;20653;-76
2022/08/15 09:02:47;;;;;;;6.60;5.88;;;;;;;;;;5059746;28;20282;-77
2022/08/15 09:05:51;;;;;;;6.60;5.90;;;;;;;;;;5081900;28;20352;-78
2022/08/15 09:08:35;;;;;;;6.10;5.50;;;;;;;;;;5072538;28;20230;-77
2022/08/15 09:11:07;;;;;;;6.28;5.72;;;;;;;;;;5060837;28;20276;-75
2022/08/15 09:13:34;;;;;;;6.22;5.63;;;;;;;;;;5063644;28;20222;-77
2022/08/15 09:16:11;;;;;;;6.07;5.47;;;;;;;;;;5052665;28;20264;-75
2022/08/15 09:18:55;;;;;;;6.47;5.57;;;;;;;;;;5051265;28;20399;-78
2022/08/15 09:21:21;;;;;;;5.80;5.30;;;;;;;;;;5051236;28;20227;-77
2022/08/15 09:23:46;;;;;;;7.10;5.65;;;;;;;;;;5069570;28;20275;-77
2022/08/15 09:26:33;;;;;;;6.53;5.30;;;;;;;;;;5076758;28;20229;-77
2022/08/15 09:29:02;;;;;;;5.68;5.18;;;;;;;;;;5068602;28;20248;-77
2022/08/15 09:31:27;;;;;;;6.05;5.47;;;;;;;;;;5079467;28;20685;-77
2022/08/15 09:34:06;;;;;;;5.72;5.22;;;;;;;;;;5062685;28;20248;-77
2022/08/15 09:37:07;;;;;;;5.88;5.38;;;;;;;;;;5078668;28;20225;-76
2022/08/15 09:39:57;;;;;;;5.80;5.30;;;;;;;;;;5078349;28;20730;-77
2022/08/15 09:42:44;;;;;;;5.70;5.18;;;;;;;;;;5076767;28;20280;-77
2022/08/15 09:45:34;;;;;;;6.07;5.57;;;;;;;;;;5074686;28;20233;-76
2022/08/15 09:48:17;;;;;;;6.45;5.40;;;;;;;;;;5078560;28;20244;-77
2022/08/15 09:51:12;;;;;;;5.88;5.38;;;;;;;;;;5056227;28;20232;-77
2022/08/15 09:53:46;;;;;;;5.47;4.97;;;;;;;;;;5077845;28;20324;-76
2022/08/15 09:56:16;;;;;;;6.05;5.38;;;;;;;;;;5072976;28;20223;-78
2022/08/15 09:58:57;;;;;;;6.40;5.80;;;;;;;;;;5036244;28;20246;-77
2022/08/15 10:01:29;;;;;;;6.90;5.45;;;;;;;;;;5049096;28;20269;-76
2022/08/15 10:04:02;;;;;;;6.03;5.50;;;;;;;;;;5066700;28;20272;-76
2022/08/15 10:06:31;;;;;;;5.93;5.30;;;;;;;;;;5042191;28;20246;-77
2022/08/15 10:09:01;;;;;;;6.25;5.65;;;;;;;;;;5066293;28;20250;-78
2022/08/15 10:11:34;;;;;;;7.22;5.32;;;;;;;;;;5076927;28;20598;-78
2022/08/15 10:14:06;;;;;;;6.40;5.90;;;;;;;;;;5073903;28;20242;-77
2022/08/15 10:16:39;;;;;;;6.05;5.40;;;;;;;;;;5069468;28;20230;-78
2022/08/15 10:19:27;;;;;;;6.45;5.85;;;;;;;;;;5079446;28;20238;-78
2022/08/15 10:21:55;;;;;;;5.60;5.10;;;;;;;;;;5059622;28;20708;-78
2022/08/15 10:24:26;;;;;;;7.80;5.25;;;;;;;;;;5049875;28;20225;-77
2022/08/15 10:27:07;;;;;;;9.45;5.53;;;;;;;;;;5080528;28;20218;-77
2022/08/15 10:29:38;;;;;;;5.30;4.90;;;;;;;;;;5064671;28;20214;-77
2022/08/15 10:32:04;;;;;;;6.00;4.50;;;;;;;;;;5051138;28;20782;-77
2022/08/15 10:34:37;;;;;;;5.82;5.13;;;;;;;;;;5047452;28;20351;-77
2022/08/15 10:37:34;;;;;;;5.07;4.68;;;;;;;;;;5049037;28;20222;-77
2022/08/15 10:40:06;;;;;;;6.72;4.95;;;;;;;;;;5068640;28;20226;-77
2022/08/15 10:42:44;;;;;;;5.22;4.72;;;;;;;;;;5079813;28;20756;-78
2022/08/15 10:45:18;;;;;;;7.07;4.65;;;;;;;;;;5058561;28;20222;-78
2022/08/15 10:48:09;;;;;;;5.00;4.60;;;;;;;;;;5077686;28;20214;-78
2022/08/15 10:51:03;;;;;;;6.88;5.07;;;;;;;;;;5066057;28;20227;-77
2022/08/15 10:53:48;;;;;;;8.27;5.50;;;;;;;;;;5061355;28;20233;-77
2022/08/15 10:56:16;;;;;;;6.00;5.43;;;;;;;;;;5080662;28;20222;-78
2022/08/15 10:58:45;;;;;;;5.72;5.20;;;;;;;;;;5087167;28;20225;-78
2022/08/15 11:01:17;;;;;;;6.05;5.55;;;;;;;;;;5044044;28;20295;-77
2022/08/15 11:03:55;;;;;;;8.93;5.20;;;;;;;;;;5083906;28;20637;-77
2022/08/15 11:06:21;;;;;;;9.38;5.90;;;;;;;;;;5047247;28;20870;-77
2022/08/15 11:08:53;;;;;;;5.80;5.40;;;;;;;;;;5078110;28;20229;-78
2022/08/15 11:11:25;;;;;;;5.70;5.28;;;;;;;;;;5080770;28;20712;-78
2022/08/15 11:14:00;;;;;;;6.00;5.38;;;;;;;;;;5055891;28;20214;-78
2022/08/15 11:16:36;;;;;;;5.70;5.20;;;;;;;;;;5057555;28;20694;-78
2022/08/15 11:19:14;;;;;;;7.10;5.90;;;;;;;;;;5033085;28;20233;-77
2022/08/15 11:22:08;;;;;;;6.93;6.22;;;;;;;;;;5047431;28;20287;-77
2022/08/15 11:24:42;;;;;;;8.02;5.70;;;;;;;;;;5068815;28;20226;-76
2022/08/15 11:27:19;;;;;;;5.70;5.25;;;;;;;;;;5048600;28;20304;-77
2022/08/15 11:29:46;;;;;;;5.40;5.00;;;;;;;;;;5072037;28;20268;-76
2022/08/15 11:32:13;;;;;;;6.65;5.32;;;;;;;;;;5073465;28;20245;-75
2022/08/15 11:34:40;;;;;;;5.03;4.72;;;;;;;;;;5039339;28;20744;-78
2022/08/15 11:37:37;;;;;;;5.70;5.20;;;;;;;;;;5064499;28;20306;-76
2022/08/15 11:40:20;;;;;;;5.60;4.75;;;;;;;;;;5068867;28;20233;-76
2022/08/15 11:42:49;;;;;;;6.13;4.93;;;;;;;;;;5078005;28;20226;-77
2022/08/15 11:45:16;;;;;;;6.38;4.95;;;;;;;;;;5064034;28;20712;-76
2022/08/15 11:47:45;;;;;;;5.43;4.93;;;;;;;;;;5057510;28;20230;-76
2022/08/15 11:50:28;;;;;;;4.88;4.47;;;;;;;;;;5066043;28;20305;-76
2022/08/15 11:52:55;;;;;;;4.97;4.28;;;;;;;;;;5064827;28;20234;-76
2022/08/15 11:55:32;;;;;;;6.10;4.85;;;;;;;;;;5056362;28;20673;-76
2022/08/15 11:57:59;;;;;;;4.78;4.38;;;;;;;;;;5079801;28;20246;-76
2022/08/15 12:00:27;;;;;;;5.72;4.18;;;;;;;;;;5058731;28;20231;-75
2022/08/15 12:02:55;;;;;;;5.07;4.65;;;;;;;;;;5073676;28;20722;-75
2022/08/15 12:05:32;;;;;;;5.05;4.65;;;;;;;;;;5052757;28;20226;-75
2022/08/15 12:08:03;;;;;;;5.28;4.78;;;;;;;;;;5063634;28;20267;-76
2022/08/15 12:10:37;;;;;;;5.70;4.45;;;;;;;;;;5083470;28;20233;-77
2022/08/15 12:13:05;;;;;;;4.88;4.47;;;;;;;;;;5045378;28;20263;-77
2022/08/15 12:15:31;;;;;;;4.85;4.45;;;;;;;;;;5043303;28;20229;-77
2022/08/15 12:18:00;;;;;;;4.70;4.30;;;;;;;;;;5079860;28;20218;-77
2022/08/15 12:20:45;;;;;;;4.60;4.20;;;;;;;;;;5076335;28;20305;-77
2022/08/15 12:23:54;;;;;;;5.55;5.05;;;;;;;;;;5084554;28;20329;-76
2022/08/15 12:26:26;;;;;;;6.30;5.10;;;;;;;;;;5084555;28;23391;-75
2022/08/15 12:28:57;;;;;;;5.60;5.10;;;;;;;;;;5056399;28;20238;-76
2022/08/15 12:31:34;;;;;;;6.05;5.45;;;;;;;;;;5078170;28;20226;-77
2022/08/15 12:34:03;;;;;;;5.32;4.93;;;;;;;;;;5053771;28;20237;-76
2022/08/15 12:36:29;;;;;;;5.75;5.25;;;;;;;;;;5080504;28;20787;-76
2022/08/15 12:38:57;;;;;;;5.50;5.10;;;;;;;;;;5082334;28;20218;-76
2022/08/15 12:41:26;;;;;;;6.53;5.65;;;;;;;;;;5063789;28;20218;-76
2022/08/15 12:43:54;;;;;;;7.50;5.75;;;;;;;;;;5057259;28;20234;-77
2022/08/15 12:46:21;;;;;;;6.47;5.50;;;;;;;;;;5073959;28;20342;-77
2022/08/15 12:48:49;;;;;;;5.93;5.40;;;;;;;;;;5058488;28;20245;-77
2022/08/15 12:51:17;;;;;;;6.07;5.47;;;;;;;;;;5076539;28;20715;-75
2022/08/15 12:53:43;;;;;;;5.20;4.70;;;;;;;;;;5068335;28;20765;-75
2022/08/15 12:56:17;;;;;;;5.72;5.20;;;;;;;;;;5055471;28;20225;-76
2022/08/15 12:58:50;;;;;;;6.13;5.63;;;;;;;;;;5069458;28;20214;-76
2022/08/15 13:01:18;;;;;;;6.13;5.63;;;;;;;;;;5079756;28;20250;-76
2022/08/15 13:03:44;;;;;;;5.53;5.10;;;;;;;;;;5042592;28;20217;-75
2022/08/15 13:06:16;;;;;;;6.18;5.32;;;;;;;;;;5075841;28;20226;-75
2022/08/15 13:08:46;;;;;;;5.78;5.25;;;;;;;;;;5061679;28;20599;-77
2022/08/15 13:11:19;;;;;;;6.25;5.63;;;;;;;;;;5050106;28;20238;-76
2022/08/15 13:13:47;;;;;;;5.60;5.10;;;;;;;;;;5078659;28;20616;-75
2022/08/15 13:16:15;;;;;;;5.88;5.30;;;;;;;;;;5050805;28;20329;-76
2022/08/15 13:18:45;;;;;;;5.50;5.10;;;;;;;;;;5064978;28;20613;-75
2022/08/15 13:23:55;;;;;;;6.70;4.97;;;;;;;;;;5078839;28;20218;-76
2022/08/15 13:26:22;;;;;;;6.75;5.57;;;;;;;;;;5050062;28;20232;-76
2022/08/15 13:28:53;;;;;;;5.53;5.03;;;;;;;;;;5061526;28;20573;-75
2022/08/15 13:31:21;;;;;;;5.53;5.03;;;;;;;;;;5080177;28;20236;-76
2022/08/15 13:33:49;;;;;;;6.05;4.90;;;;;;;;;;5064715;28;20307;-75
2022/08/15 13:36:19;;;;;;;5.10;4.60;;;;;;;;;;5075359;28;20214;-75
2022/08/15 13:38:49;;;;;;;6.30;4.80;;;;;;;;;;5066672;28;20215;-75
2022/08/15 13:41:19;;;;;;;5.68;5.18;;;;;;;;;;5067727;28;20685;-76
2022/08/15 13:43:49;;;;;;;5.28;4.78;;;;;;;;;;5062915;28;20213;-76
2022/08/15 13:46:25;;;;;;;6.15;4.90;;;;;;;;;;5061996;28;20269;-76
2022/08/15 13:48:53;;;;;;;5.55;5.15;;;;;;;;;;5059045;28;20229;-75
2022/08/15 13:51:30;;;;;;;5.20;4.70;;;;;;;;;;5042069;28;20624;-76
2022/08/15 13:53:58;;;;;;;6.13;5.20;;;;;;;;;;5066370;28;20248;-77
2022/08/15 13:56:24;;;;;;;5.95;4.95;;;;;;;;;;5079647;28;20276;-79
2022/08/15 13:58:49;;;;;;;6.03;5.53;;;;;;;;;;5055519;28;20227;-77
2022/08/15 14:01:19;;;;;;;5.25;4.80;;;;;;;;;;5041025;28;20262;-77
2022/08/15 14:03:45;;;;;;;6.10;4.97;;;;;;;;;;5048398;28;20439;-77
2022/08/15 14:06:11;;;;;;;5.55;5.00;;;;;;;;;;5048308;28;20226;-77
2022/08/15 14:08:37;;;;;;;8.10;5.28;;;;;;;;;;5045648;28;20259;-77
2022/08/15 14:11:04;;;;;;;6.15;5.55;;;;;;;;;;5058115;28;20241;-77
2022/08/15 14:13:30;;;;;;;6.03;5.40;;;;;;;;;;5057761;28;20222;-76
2022/08/15 14:15:58;;;;;;;6.15;5.50;;;;;;;;;;5044473;28;20211;-76
2022/08/15 14:18:24;;;;;;;6.78;5.45;;;;;;;;;;5029747;28;20229;-76
2022/08/15 14:20:55;;;;;;;5.90;5.40;;;;;;;;;;5055354;28;20636;-77
2022/08/15 14:23:21;;;;;;;5.95;5.32;;;;;;;;;;5058022;28;20277;-76
2022/08/15 14:25:49;;;;;;;5.93;5.43;;;;;;;;;;5043535;28;20210;-75
2022/08/15 14:28:19;;;;;;;7.68;6.13;;;;;;;;;;5049557;28;20696;-76
2022/08/15 14:30:47;;;;;;;6.25;5.82;;;;;;;;;;5068538;28;20463;-76
2022/08/15 14:33:15;;;;;;;6.50;5.90;;;;;;;;;;5022808;28;20226;-74
2022/08/15 14:35:43;;;;;;;6.38;5.88;;;;;;;;;;5040231;28;20215;-76
2022/08/15 14:38:11;;;;;;;5.93;5.43;;;;;;;;;;5058576;28;20213;-76
2022/08/15 14:40:38;;;;;;;6.55;5.97;;;;;;;;;;5024409;28;20222;-75
2022/08/15 14:43:12;;;;;;;6.60;6.00;;;;;;;;;;5041765;28;20223;-75
2022/08/15 14:45:43;;;;;;;6.88;6.28;;;;;;;;;;5059590;28;20218;-75
2022/08/15 14:48:10;;;;;;;6.03;5.53;;;;;;;;;;5050015;28;20222;-75
2022/08/15 14:50:35;;;;;;;6.32;5.88;;;;;;;;;;5040753;28;20686;-74
2022/08/15 14:53:06;;;;;;;6.35;5.82;;;;;;;;;;5025846;28;20764;-75
2022/08/15 14:55:36;;;;;;;6.25;5.75;;;;;;;;;;5034250;28;20209;-75
2022/08/15 14:58:03;;;;;;;4.82;4.43;;;;;;;;;;5067160;28;20220;-75
2022/08/15 15:00:31;;;;;;;4.78;4.38;;;;;;;;;;5040603;28;20265;-75
2022/08/15 15:02:57;;;;;;;5.20;4.43;;;;;;;;;;5056300;28;20256;-75
2022/08/15 15:05:24;;;;;;;5.00;4.53;;;;;;;;;;5062000;28;20222;-74
2022/08/15 15:07:56;;;;;;;4.50;4.10;;;;;;;;;;5031485;28;20221;-74
2022/08/15 15:10:25;;;;;;;4.40;4.00;;;;;;;;;;5066475;28;20229;-74
2022/08/15 15:12:55;;;;;;;4.80;4.32;;;;;;;;;;5039647;28;20587;-74
2022/08/15 15:15:21;;;;;;;4.40;4.00;;;;;;;;;;5042862;28;20241;-76
2022/08/15 15:17:49;;;;;;;4.28;3.78;;;;;;;;;;5042190;28;20222;-75
2022/08/15 15:20:15;;;;;;;4.45;4.05;;;;;;;;;;5027084;28;20725;-74
2022/08/15 15:22:41;;;;;;;4.20;3.80;;;;;;;;;;5029149;28;20222;-77
2022/08/15 15:25:09;;;;;;;4.07;3.78;;;;;;;;;;5042116;28;20222;-74